PWSweather.com
Personal Weather Stations
Station Observations
BZA01
Southern Palatinate, Bad BergzabernDE 76887

Southern PalatinateBad BergzabernDE 76887

Lat: 49.096, Lon: 8

Elevation: 640

Station Type: Davis VP2+

Latest ConditionsUpdated 5:42:03 AM GMT+01:01 Friday, Apr 27, 2018
Currently Today's Max Today's Min Today's Average
Temperature 40.8°F4.9°C 46.6°F8.1°C 40.6°F4.8°C 43.2°F6.2°C
Dew Point 36.7°F2.6°C 38.5°F3.6°C 36.3°F2.4°C 37.6°F3.1°C
Winds 2.0 mph W3.2 kmh W 4.9 mph W7.9 kmh W - 2.2 mph 3.5 kmh
Wind Gusts 2.0 mph3.2 kmh 6.0 mph9.7 kmh - -
Humidity 85% 85% 72% 81%
Pressure 29.97 in1014.9 mb 30.06 in1017.9 mb 29.97 in1014.9 mb -
Hour Temp Dew Point Humidity Winds Wind Gusts Pressure Precip Precip Rate Daily Precip Total
05:42 AM 40.8°F4.9°C 36.7°F2.6°C 85% 2.0 mph W3.2 kmh W 2.0 mph3.2 kmh 29.97 in1014.9 mb - 0.00 in0.0 mm 0.00 in0.0 mm
05:37 AM 40.6°F4.8°C 36.5°F2.5°C 85% 2.9 mph WNW4.7 kmh WNW 2.0 mph3.2 kmh 29.98 in1015.2 mb - 0.00 in0.0 mm 0.00 in0.0 mm
05:32 AM 40.6°F4.8°C 36.5°F2.5°C 85% 2.9 mph W4.7 kmh W 2.0 mph3.2 kmh 29.98 in1015.2 mb - 0.00 in0.0 mm 0.00 in0.0 mm
05:27 AM 40.6°F4.8°C 36.5°F2.5°C 85% 2.9 mph W4.7 kmh W 2.0 mph3.2 kmh 29.98 in1015.2 mb - 0.00 in0.0 mm 0.00 in0.0 mm
05:22 AM 40.8°F4.9°C 36.7°F2.6°C 85% 2.9 mph W4.7 kmh W 2.9 mph4.7 kmh 29.98 in1015.2 mb - 0.00 in0.0 mm 0.00 in0.0 mm
05:17 AM 40.8°F4.9°C 36.7°F2.6°C 85% 2.9 mph SW4.7 kmh SW 2.0 mph3.2 kmh 29.98 in1015.2 mb - 0.00 in0.0 mm 0.00 in0.0 mm
05:12 AM 40.8°F4.9°C 36.7°F2.6°C 85% 2.9 mph WSW4.7 kmh WSW 0.9 mph1.4 kmh 29.98 in1015.2 mb - 0.00 in0.0 mm 0.00 in0.0 mm
05:07 AM 40.8°F4.9°C 36.3°F2.4°C 84% 2.0 mph W3.2 kmh W 4.0 mph6.4 kmh 29.99 in1015.6 mb - 0.00 in0.0 mm 0.00 in0.0 mm
05:02 AM 41.0°F5.0°C 36.5°F2.5°C 84% 2.9 mph W4.7 kmh W 0.9 mph1.4 kmh 29.99 in1015.6 mb - 0.00 in0.0 mm 0.00 in0.0 mm
04:57 AM 41.2°F5.1°C 36.7°F2.6°C 84% 2.9 mph W4.7 kmh W 2.9 mph4.7 kmh 29.99 in1015.6 mb - 0.00 in0.0 mm 0.00 in0.0 mm
04:52 AM 41.4°F5.2°C 36.5°F2.5°C 83% 2.9 mph W4.7 kmh W 2.9 mph4.7 kmh 29.99 in1015.6 mb - 0.00 in0.0 mm 0.00 in0.0 mm
04:47 AM 41.5°F5.3°C 36.7°F2.6°C 83% 2.9 mph ENE4.7 kmh ENE 2.0 mph3.2 kmh 29.99 in1015.6 mb - 0.00 in0.0 mm 0.00 in0.0 mm
04:42 AM 41.7°F5.4°C 36.9°F2.7°C 83% 2.9 mph WNW4.7 kmh WNW 2.0 mph3.2 kmh 29.99 in1015.6 mb - 0.00 in0.0 mm 0.00 in0.0 mm
04:37 AM 41.9°F5.5°C 37.0°F2.8°C 83% 4.0 mph WSW6.4 kmh WSW 4.0 mph6.4 kmh 29.99 in1015.6 mb - 0.00 in0.0 mm 0.00 in0.0 mm
04:32 AM 42.1°F5.6°C 37.2°F2.9°C 83% 4.0 mph W6.4 kmh W 2.9 mph4.7 kmh 29.99 in1015.6 mb - 0.00 in0.0 mm 0.00 in0.0 mm
04:27 AM 42.3°F5.7°C 37.2°F2.9°C 82% 4.9 mph W7.9 kmh W 6.0 mph9.7 kmh 30.00 in1015.9 mb - 0.00 in0.0 mm 0.00 in0.0 mm
04:22 AM 42.3°F5.7°C 37.2°F2.9°C 82% 4.9 mph W7.9 kmh W 2.9 mph4.7 kmh 30.00 in1015.9 mb - 0.00 in0.0 mm 0.00 in0.0 mm
04:17 AM 42.4°F5.8°C 37.4°F3.0°C 82% 4.0 mph WSW6.4 kmh WSW 2.0 mph3.2 kmh 30.00 in1015.9 mb - 0.00 in0.0 mm 0.00 in0.0 mm
04:12 AM 42.4°F5.8°C 37.4°F3.0°C 82% 4.0 mph W6.4 kmh W 4.0 mph6.4 kmh 30.00 in1015.9 mb - 0.00 in0.0 mm 0.00 in0.0 mm
04:07 AM 42.4°F5.8°C 37.4°F3.0°C 82% 4.0 mph WSW6.4 kmh WSW 2.9 mph4.7 kmh 30.00 in1015.9 mb - 0.00 in0.0 mm 0.00 in0.0 mm
04:02 AM 42.4°F5.8°C 37.4°F3.0°C 82% 2.9 mph W4.7 kmh W 2.9 mph4.7 kmh 30.01 in1016.3 mb - 0.00 in0.0 mm 0.00 in0.0 mm
03:57 AM 42.3°F5.7°C 37.2°F2.9°C 82% 2.9 mph W4.7 kmh W 0.9 mph1.4 kmh 30.01 in1016.3 mb - 0.00 in0.0 mm 0.00 in0.0 mm
03:52 AM 42.3°F5.7°C 37.2°F2.9°C 82% 2.9 mph W4.7 kmh W 4.0 mph6.4 kmh 30.01 in1016.3 mb - 0.00 in0.0 mm 0.00 in0.0 mm
03:47 AM 42.3°F5.7°C 37.2°F2.9°C 82% 2.9 mph W4.7 kmh W 2.0 mph3.2 kmh 30.01 in1016.3 mb - 0.00 in0.0 mm 0.00 in0.0 mm
03:42 AM 42.4°F5.8°C 37.4°F3.0°C 82% 2.9 mph WSW4.7 kmh WSW 2.9 mph4.7 kmh 30.01 in1016.3 mb - 0.00 in0.0 mm 0.00 in0.0 mm
03:37 AM 42.4°F5.8°C 37.4°F3.0°C 82% 2.9 mph WSW4.7 kmh WSW 0.9 mph1.4 kmh 30.01 in1016.3 mb - 0.00 in0.0 mm 0.00 in0.0 mm
03:32 AM 42.6°F5.9°C 37.6°F3.1°C 82% 2.9 mph W4.7 kmh W 6.0 mph9.7 kmh 30.02 in1016.6 mb - 0.00 in0.0 mm 0.00 in0.0 mm
03:27 AM 42.8°F6.0°C 37.8°F3.2°C 82% 2.9 mph W4.7 kmh W 2.0 mph3.2 kmh 30.02 in1016.6 mb - 0.00 in0.0 mm 0.00 in0.0 mm
03:22 AM 43.0°F6.1°C 37.6°F3.1°C 81% 2.9 mph WSW4.7 kmh WSW 4.0 mph6.4 kmh 30.02 in1016.6 mb - 0.00 in0.0 mm 0.00 in0.0 mm
03:17 AM 43.0°F6.1°C 37.6°F3.1°C 81% 2.0 mph W3.2 kmh W 2.0 mph3.2 kmh 30.02 in1016.6 mb - 0.00 in0.0 mm 0.00 in0.0 mm
03:12 AM 43.0°F6.1°C 37.6°F3.1°C 81% 2.0 mph W3.2 kmh W 4.0 mph6.4 kmh 30.02 in1016.6 mb - 0.00 in0.0 mm 0.00 in0.0 mm
03:07 AM 43.2°F6.2°C 37.8°F3.2°C 81% 2.0 mph WNW3.2 kmh WNW -- 30.02 in1016.6 mb - 0.00 in0.0 mm 0.00 in0.0 mm
03:02 AM 43.2°F6.2°C 37.8°F3.2°C 81% 2.0 mph W3.2 kmh W 2.9 mph4.7 kmh 30.02 in1016.6 mb - 0.00 in0.0 mm 0.00 in0.0 mm
02:57 AM 43.2°F6.2°C 37.8°F3.2°C 81% 2.0 mph W3.2 kmh W 2.0 mph3.2 kmh 30.02 in1016.6 mb - 0.00 in0.0 mm 0.00 in0.0 mm
02:52 AM 43.3°F6.3°C 37.9°F3.3°C 81% 2.9 mph W4.7 kmh W 2.0 mph3.2 kmh 30.03 in1016.9 mb - 0.00 in0.0 mm 0.00 in0.0 mm
02:47 AM 43.3°F6.3°C 37.9°F3.3°C 81% 2.0 mph W3.2 kmh W 2.9 mph4.7 kmh 30.03 in1016.9 mb - 0.00 in0.0 mm 0.00 in0.0 mm
02:42 AM 43.3°F6.3°C 37.9°F3.3°C 81% 2.0 mph WSW3.2 kmh WSW 2.9 mph4.7 kmh 30.03 in1016.9 mb - 0.00 in0.0 mm 0.00 in0.0 mm
02:37 AM 43.3°F6.3°C 37.9°F3.3°C 81% 2.0 mph W3.2 kmh W 2.0 mph3.2 kmh 30.03 in1016.9 mb - 0.00 in0.0 mm 0.00 in0.0 mm
02:32 AM 43.3°F6.3°C 37.9°F3.3°C 81% 2.0 mph WSW3.2 kmh WSW 2.0 mph3.2 kmh 30.03 in1016.9 mb - 0.00 in0.0 mm 0.00 in0.0 mm
02:27 AM 43.2°F6.2°C 37.8°F3.2°C 81% 2.0 mph W3.2 kmh W 2.9 mph4.7 kmh 30.03 in1016.9 mb - 0.00 in0.0 mm 0.00 in0.0 mm
02:22 AM 43.2°F6.2°C 37.8°F3.2°C 81% 2.0 mph W3.2 kmh W 2.0 mph3.2 kmh 30.03 in1016.9 mb - 0.00 in0.0 mm 0.00 in0.0 mm
02:17 AM 43.0°F6.1°C 37.9°F3.3°C 82% 2.0 mph W3.2 kmh W 0.9 mph1.4 kmh 30.04 in1017.3 mb - 0.00 in0.0 mm 0.00 in0.0 mm
02:12 AM 42.8°F6.0°C 37.8°F3.2°C 82% 0.9 mph W1.4 kmh W 2.0 mph3.2 kmh 30.04 in1017.3 mb - 0.00 in0.0 mm 0.00 in0.0 mm
02:07 AM 43.0°F6.1°C 37.9°F3.3°C 82% 0.9 mph W1.4 kmh W 0.9 mph1.4 kmh 30.04 in1017.3 mb - 0.00 in0.0 mm 0.00 in0.0 mm
02:02 AM 43.0°F6.1°C 37.9°F3.3°C 82% Calm Calm 2.0 mph3.2 kmh 30.04 in1017.3 mb - 0.00 in0.0 mm 0.00 in0.0 mm
01:57 AM 43.2°F6.2°C 37.8°F3.2°C 81% Calm Calm -- 30.04 in1017.3 mb - 0.00 in0.0 mm 0.00 in0.0 mm
01:52 AM 43.2°F6.2°C 37.8°F3.2°C 81% Calm Calm -- 30.04 in1017.3 mb - 0.00 in0.0 mm 0.00 in0.0 mm
01:47 AM 43.3°F6.3°C 37.9°F3.3°C 81% Calm Calm -- 30.04 in1017.3 mb - 0.00 in0.0 mm 0.00 in0.0 mm
01:42 AM 43.5°F6.4°C 38.1°F3.4°C 81% Calm Calm -- 30.05 in1017.6 mb - 0.00 in0.0 mm 0.00 in0.0 mm
01:37 AM 43.7°F6.5°C 38.3°F3.5°C 81% Calm Calm -- 30.05 in1017.6 mb - 0.00 in0.0 mm 0.00 in0.0 mm
01:32 AM 43.9°F6.6°C 38.1°F3.4°C 80% Calm Calm -- 30.05 in1017.6 mb - 0.00 in0.0 mm 0.00 in0.0 mm
01:27 AM 43.9°F6.6°C 38.1°F3.4°C 80% Calm Calm -- 30.05 in1017.6 mb - 0.00 in0.0 mm 0.00 in0.0 mm
01:22 AM 44.1°F6.7°C 38.3°F3.5°C 80% Calm Calm -- 30.06 in1017.9 mb - 0.00 in0.0 mm 0.00 in0.0 mm
01:17 AM 44.2°F6.8°C 38.1°F3.4°C 79% Calm Calm -- 30.05 in1017.6 mb - 0.00 in0.0 mm 0.00 in0.0 mm
01:12 AM 44.4°F6.9°C 38.3°F3.5°C 79% Calm Calm -- 30.06 in1017.9 mb - 0.00 in0.0 mm 0.00 in0.0 mm
01:07 AM 44.4°F6.9°C 38.3°F3.5°C 79% Calm Calm -- 30.06 in1017.9 mb - 0.00 in0.0 mm 0.00 in0.0 mm
01:02 AM 44.8°F7.1°C 38.3°F3.5°C 78% 0.9 mph SW1.4 kmh SW -- 30.05 in1017.6 mb - 0.00 in0.0 mm 0.00 in0.0 mm
12:57 AM 45.0°F7.2°C 38.5°F3.6°C 78% 0.9 mph SW1.4 kmh SW -- 30.06 in1017.9 mb - 0.00 in0.0 mm 0.00 in0.0 mm
12:52 AM 45.3°F7.4°C 38.1°F3.4°C 76% 2.0 mph SW3.2 kmh SW 0.9 mph1.4 kmh 30.06 in1017.9 mb - 0.00 in0.0 mm 0.00 in0.0 mm
12:47 AM 45.5°F7.5°C 38.3°F3.5°C 76% 2.0 mph SSW3.2 kmh SSW 2.0 mph3.2 kmh 30.06 in1017.9 mb - 0.00 in0.0 mm 0.00 in0.0 mm
12:42 AM 45.9°F7.7°C 38.3°F3.5°C 75% 2.0 mph WSW3.2 kmh WSW 2.9 mph4.7 kmh 30.06 in1017.9 mb - 0.00 in0.0 mm 0.00 in0.0 mm
12:37 AM 46.0°F7.8°C 38.3°F3.5°C 74% 2.0 mph WNW3.2 kmh WNW 0.9 mph1.4 kmh 30.06 in1017.9 mb - 0.00 in0.0 mm 0.00 in0.0 mm
12:32 AM 46.2°F7.9°C 38.1°F3.4°C 73% 2.0 mph SW3.2 kmh SW 4.0 mph6.4 kmh 30.05 in1017.6 mb - 0.00 in0.0 mm 0.00 in0.0 mm
12:27 AM 46.2°F7.9°C 38.1°F3.4°C 73% 2.0 mph WNW3.2 kmh WNW 0.9 mph1.4 kmh 30.05 in1017.6 mb - 0.00 in0.0 mm 0.00 in0.0 mm
12:22 AM 46.4°F8.0°C 38.3°F3.5°C 73% 2.9 mph W4.7 kmh W 4.0 mph6.4 kmh 30.05 in1017.6 mb - 0.00 in0.0 mm 0.00 in0.0 mm
12:17 AM 46.4°F8.0°C 37.9°F3.3°C 72% 2.9 mph WNW4.7 kmh WNW 2.0 mph3.2 kmh 30.05 in1017.6 mb - 0.00 in0.0 mm 0.00 in0.0 mm
12:12 AM 46.6°F8.1°C 38.1°F3.4°C 72% 2.9 mph W4.7 kmh W 2.9 mph4.7 kmh 30.05 in1017.6 mb - 0.00 in0.0 mm 0.00 in0.0 mm
12:07 AM 46.4°F8.0°C 37.9°F3.3°C 72% 2.9 mph W4.7 kmh W 2.0 mph3.2 kmh 30.05 in1017.6 mb - 0.00 in0.0 mm 0.00 in0.0 mm
12:02 AM 46.4°F8.0°C 37.9°F3.3°C 72% 2.9 mph W4.7 kmh W 0.9 mph1.4 kmh 30.05 in1017.6 mb - 0.00 in0.0 mm 0.00 in0.0 mm